createdAt,value
2018-04-14T00:00:21.157Z,41.74
2018-04-14T00:01:21.135Z,42.00
2018-04-14T00:02:21.053Z,42.02
2018-04-14T00:03:21.251Z,41.71
2018-04-14T00:04:21.087Z,41.62
2018-04-14T00:05:20.970Z,40.47
2018-04-14T00:06:20.984Z,39.81
2018-04-14T00:07:20.967Z,39.32
2018-04-14T00:08:20.885Z,39.23
2018-04-14T00:09:20.971Z,38.76
2018-04-14T00:10:20.887Z,38.76
2018-04-14T00:11:20.840Z,38.18
2018-04-14T00:12:20.879Z,37.51
2018-04-14T00:13:20.849Z,37.71
2018-04-14T00:14:20.733Z,35.80
2018-04-14T00:15:20.805Z,35.99
2018-04-14T00:16:20.666Z,35.32
2018-04-14T00:17:20.721Z,35.89
2018-04-14T00:18:20.714Z,35.21
2018-04-14T00:19:20.586Z,34.82
2018-04-14T00:20:20.619Z,34.54
2018-04-14T00:21:20.661Z,33.49
2018-04-14T00:22:20.553Z,33.87
2018-04-14T00:23:20.621Z,33.97
2018-04-14T00:24:20.464Z,33.78
2018-04-14T00:25:20.471Z,34.06
2018-04-14T00:26:20.402Z,33.68
2018-04-14T00:27:20.366Z,33.78
2018-04-14T00:28:20.397Z,33.20
2018-04-14T00:29:20.498Z,33.49
2018-04-14T00:30:20.314Z,33.49
2018-04-14T00:31:20.307Z,33.39
2018-04-14T00:32:20.224Z,32.92
2018-04-14T00:33:20.319Z,32.63
2018-04-14T00:34:20.161Z,32.82
2018-04-14T00:35:20.195Z,32.82
2018-04-14T00:36:20.180Z,33.49
2018-04-14T00:37:20.071Z,33.87
2018-04-14T00:38:20.107Z,33.78
2018-04-14T00:39:20.051Z,33.49
2018-04-14T00:40:19.989Z,32.73
2018-04-14T00:41:20.057Z,32.44
2018-04-14T00:42:19.977Z,32.63
2018-04-14T00:43:19.971Z,32.73
2018-04-14T00:44:19.953Z,33.58
2018-04-14T00:45:19.890Z,34.44
2018-04-14T00:46:19.824Z,33.97
2018-04-14T00:47:19.849Z,33.97
2018-04-14T00:48:19.806Z,33.49
2018-04-14T00:49:19.840Z,33.49
2018-04-14T00:50:19.819Z,32.63
2018-04-14T00:51:19.757Z,32.63
2018-04-14T00:52:19.658Z,33.11
2018-04-14T00:53:19.744Z,32.44
2018-04-14T00:54:19.687Z,32.73
2018-04-14T00:55:19.577Z,33.58
2018-04-14T00:56:19.596Z,32.63
2018-04-14T00:57:19.510Z,32.34
2018-04-14T00:58:19.564Z,32.44
2018-04-14T00:59:19.599Z,32.34
2018-04-14T01:00:19.436Z,32.73
2018-04-14T01:01:19.513Z,33.58
2018-04-14T01:02:19.387Z,34.06
2018-04-14T01:03:19.445Z,32.82
2018-04-14T01:04:19.320Z,33.49
2018-04-14T01:05:19.346Z,33.03
2018-04-14T01:06:19.323Z,34.46
2018-04-14T01:07:19.229Z,32.74
2018-04-14T01:08:19.263Z,33.89
2018-04-14T01:09:19.373Z,34.36
2018-04-14T01:10:19.154Z,33.70
2018-04-14T01:11:19.270Z,34.84
2018-04-14T01:12:19.156Z,35.02
2018-04-14T01:13:19.098Z,34.54
2018-04-14T01:14:19.044Z,33.49
2018-04-14T01:15:19.179Z,32.15
2018-04-14T01:16:19.133Z,31.77
2018-04-14T01:17:18.965Z,31.88
2018-04-14T01:18:18.985Z,32.24
2018-04-14T01:19:18.905Z,33.50
2018-04-14T01:20:18.990Z,32.45
2018-04-14T01:21:18.934Z,33.58
2018-04-14T01:22:18.899Z,33.60
2018-04-14T01:23:18.838Z,33.97
2018-04-14T01:24:18.958Z,32.74
2018-04-14T01:25:18.728Z,32.74
2018-04-14T01:26:18.769Z,32.84
2018-04-14T01:27:18.697Z,33.50
2018-04-14T01:28:18.775Z,33.41
2018-04-14T01:29:18.678Z,32.74
2018-04-14T01:30:18.604Z,32.74
2018-04-14T01:31:18.708Z,33.70
2018-04-14T01:32:18.587Z,33.41
2018-04-14T01:33:18.585Z,33.41
2018-04-14T01:34:18.513Z,33.60
2018-04-14T01:35:18.537Z,34.36
2018-04-14T01:36:18.512Z,34.08
2018-04-14T01:37:18.492Z,33.79
2018-04-14T01:38:18.393Z,34.17
2018-04-14T01:39:18.435Z,33.41
2018-04-14T01:40:18.315Z,34.55
2018-04-14T01:41:18.334Z,34.84
2018-04-14T01:42:18.682Z,34.46
2018-04-14T01:43:18.302Z,35.22
2018-04-14T01:44:18.207Z,34.75
2018-04-14T01:45:18.186Z,34.55
2018-04-14T01:46:18.226Z,34.46
2018-04-14T01:47:18.123Z,34.36
2018-04-14T01:48:18.249Z,33.60
2018-04-14T01:49:18.078Z,32.55
2018-04-14T01:50:18.127Z,31.79
2018-04-14T01:51:18.077Z,31.21
2018-04-14T01:52:18.092Z,30.83
2018-04-14T01:53:18.002Z,30.64
2018-04-14T01:54:18.035Z,30.83
2018-04-14T01:55:17.910Z,32.17
2018-04-14T01:56:17.867Z,33.41
2018-04-14T01:57:17.949Z,33.60
2018-04-14T01:58:17.848Z,34.27
2018-04-14T01:59:17.797Z,33.50
2018-04-14T02:00:17.807Z,33.60
2018-04-14T02:01:17.799Z,33.70
2018-04-14T02:02:17.753Z,32.84
2018-04-14T02:03:17.673Z,33.31
2018-04-14T02:04:17.682Z,32.26
2018-04-14T02:05:17.690Z,31.50
2018-04-14T02:06:17.591Z,31.12
2018-04-14T02:07:17.569Z,31.79
2018-04-14T02:08:17.757Z,31.02
2018-04-14T02:09:17.508Z,30.82
2018-04-14T02:10:17.518Z,30.83
2018-04-14T02:11:17.452Z,30.53
2018-04-14T02:12:17.564Z,30.82
2018-04-14T02:13:17.427Z,30.72
2018-04-14T02:14:17.431Z,30.83
2018-04-14T02:15:17.443Z,30.72
2018-04-14T02:16:17.317Z,30.72
2018-04-14T02:17:17.353Z,30.15
2018-04-14T02:18:17.264Z,30.91
2018-04-14T02:19:17.321Z,30.83
2018-04-14T02:20:17.197Z,31.31
2018-04-14T02:21:17.170Z,31.40
2018-04-14T02:22:17.141Z,31.88
2018-04-14T02:23:17.122Z,31.02
2018-04-14T02:24:17.083Z,30.64
2018-04-14T02:25:17.060Z,29.58
2018-04-14T02:26:17.026Z,30.07
2018-04-14T02:27:17.009Z,29.58
2018-04-14T02:28:16.975Z,28.81
2018-04-14T02:29:16.946Z,29.29
2018-04-14T02:30:16.925Z,29.48
2018-04-14T02:31:16.891Z,29.19
2018-04-14T02:32:16.869Z,29.00
2018-04-14T02:33:16.846Z,28.81
2018-04-14T02:34:16.805Z,29.19
2018-04-14T02:35:16.774Z,29.96
2018-04-14T02:36:16.748Z,29.96
2018-04-14T02:37:16.719Z,29.67
2018-04-14T02:38:16.695Z,29.19
2018-04-14T02:39:16.672Z,29.38
2018-04-14T02:40:16.640Z,29.59
2018-04-14T02:41:16.623Z,29.67
2018-04-14T02:42:16.588Z,29.00
2018-04-14T02:43:16.554Z,29.02
2018-04-14T02:44:16.524Z,29.49
2018-04-14T02:45:16.497Z,29.67
2018-04-14T02:46:16.470Z,29.69
2018-04-14T02:47:16.437Z,29.97
2018-04-14T02:48:16.416Z,30.83
2018-04-14T02:49:16.389Z,30.74
2018-04-14T02:50:16.426Z,30.83
2018-04-14T02:51:16.336Z,30.74
2018-04-14T02:52:16.347Z,30.74
2018-04-14T02:53:16.299Z,31.31
2018-04-14T02:54:16.255Z,30.83
2018-04-14T02:55:16.222Z,30.55
2018-04-14T02:56:16.221Z,30.45
2018-04-14T02:57:16.175Z,30.93
2018-04-14T02:58:16.136Z,30.83
2018-04-14T02:59:16.116Z,30.45
2018-04-14T03:00:16.083Z,30.45
2018-04-14T03:01:16.053Z,30.83
2018-04-14T03:02:16.041Z,31.79
2018-04-14T03:03:15.991Z,32.55
2018-04-14T03:04:15.964Z,32.17
2018-04-14T03:05:15.969Z,32.26
2018-04-14T03:06:15.905Z,32.07
2018-04-14T03:07:15.882Z,32.84
2018-04-14T03:08:15.867Z,32.84
2018-04-14T03:09:15.832Z,32.55
2018-04-14T03:10:15.857Z,33.50
2018-04-14T03:11:15.779Z,33.41
2018-04-14T03:12:15.739Z,33.60
2018-04-14T03:13:15.721Z,33.70
2018-04-14T03:14:15.688Z,33.50
2018-04-14T03:15:15.655Z,33.39
2018-04-14T03:16:15.632Z,33.41
2018-04-14T03:17:15.612Z,32.93
2018-04-14T03:18:15.574Z,32.26
2018-04-14T03:19:15.541Z,32.36
2018-04-14T03:20:15.518Z,33.50
2018-04-14T03:21:15.490Z,33.79
2018-04-14T03:22:15.466Z,34.08
2018-04-14T03:23:15.437Z,34.54
2018-04-14T03:24:15.416Z,34.46
2018-04-14T03:25:15.380Z,34.36
2018-04-14T03:26:15.358Z,33.79
2018-04-14T03:27:15.324Z,32.84
2018-04-14T03:28:15.302Z,32.63
2018-04-14T03:29:15.266Z,31.29
2018-04-14T03:30:15.243Z,30.72
2018-04-14T03:31:15.237Z,30.63
2018-04-14T03:32:15.184Z,31.20
2018-04-14T03:33:15.149Z,30.63
2018-04-14T03:34:15.120Z,29.29
2018-04-14T03:35:15.091Z,27.67
2018-04-14T03:36:15.069Z,27.67
2018-04-14T03:37:15.040Z,26.62
2018-04-14T03:38:15.007Z,27.28
2018-04-14T03:39:14.984Z,26.72
2018-04-14T03:40:14.966Z,27.67
2018-04-14T03:41:14.928Z,28.33
2018-04-14T03:42:14.902Z,28.43
2018-04-14T03:43:14.871Z,28.91
2018-04-14T03:44:14.844Z,29.10
2018-04-14T03:45:14.816Z,29.10
2018-04-14T03:46:14.794Z,28.81
2018-04-14T03:47:14.762Z,29.00
2018-04-14T03:48:14.743Z,29.77
2018-04-14T03:49:14.705Z,30.15
2018-04-14T03:50:14.676Z,29.96
2018-04-14T03:51:14.645Z,30.53
2018-04-14T03:52:14.631Z,30.43
2018-04-14T03:53:14.615Z,30.34
2018-04-14T03:54:14.574Z,28.81
2018-04-14T03:55:14.541Z,29.96
2018-04-14T03:56:14.501Z,31.69
2018-04-14T03:57:14.477Z,32.36
2018-04-14T03:58:14.469Z,32.26
2018-04-14T03:59:14.420Z,32.26
2018-04-14T04:00:14.390Z,32.17
2018-04-14T04:01:14.418Z,32.74
2018-04-14T04:02:14.349Z,33.70
2018-04-14T04:03:14.311Z,33.98
2018-04-14T04:04:14.292Z,34.46
2018-04-14T04:05:14.255Z,35.22
2018-04-14T04:06:14.259Z,34.08
2018-04-14T04:07:14.218Z,33.89
2018-04-14T04:08:14.173Z,34.08
2018-04-14T04:09:14.146Z,34.84
2018-04-14T04:10:14.157Z,35.60
2018-04-14T04:11:14.080Z,34.36
2018-04-14T04:12:14.064Z,34.63
2018-04-14T04:13:14.032Z,33.12
2018-04-14T04:14:14.013Z,32.65
2018-04-14T04:15:13.986Z,33.31
2018-04-14T04:16:13.952Z,34.17
2018-04-14T04:17:13.915Z,33.98
2018-04-14T04:18:13.919Z,34.75
2018-04-14T04:19:13.861Z,36.08
2018-04-14T04:20:13.840Z,36.27
2018-04-14T04:21:13.862Z,37.71
2018-04-14T04:22:13.787Z,38.37
2018-04-14T04:23:13.749Z,38.37
2018-04-14T04:24:13.745Z,37.32
2018-04-14T04:25:13.700Z,37.51
2018-04-14T04:26:13.680Z,37.90
2018-04-14T04:27:13.684Z,40.66
2018-04-14T04:28:13.642Z,42.29
2018-04-14T04:29:13.585Z,44.58
2018-04-14T04:30:13.570Z,44.48
2018-04-14T04:31:13.560Z,43.82
2018-04-14T04:32:13.495Z,43.82
2018-04-14T04:33:13.476Z,43.62
2018-04-14T04:34:13.446Z,43.72
2018-04-14T04:35:13.423Z,44.10
2018-04-14T04:36:13.396Z,43.53
2018-04-14T04:37:13.366Z,44.67
2018-04-14T04:38:13.335Z,44.29
2018-04-14T04:39:13.335Z,44.87
2018-04-14T04:40:13.278Z,48.49
2018-04-14T04:41:13.247Z,48.49
2018-04-14T04:42:13.243Z,47.34
2018-04-14T04:43:13.186Z,46.30
2018-04-14T04:44:13.166Z,46.68
2018-04-14T04:45:13.143Z,46.48
2018-04-14T04:46:13.112Z,46.39
2018-04-14T04:47:13.081Z,46.77
2018-04-14T04:48:13.054Z,45.92
2018-04-14T04:49:13.022Z,46.20
2018-04-14T04:50:13.007Z,43.33
2018-04-14T04:51:12.977Z,44.29
2018-04-14T04:52:12.944Z,45.72
2018-04-14T04:53:12.922Z,44.29
2018-04-14T04:54:12.890Z,46.20
2018-04-14T04:55:12.859Z,49.35
2018-04-14T04:56:12.834Z,52.40
2018-04-14T04:57:12.807Z,54.22
2018-04-14T04:58:12.770Z,52.79
2018-04-14T04:59:12.742Z,53.55
2018-04-14T05:00:12.718Z,53.45
2018-04-14T05:01:12.688Z,55.55
2018-04-14T05:02:12.657Z,56.70
2018-04-14T05:03:12.627Z,59.76
2018-04-14T05:04:12.609Z,58.33
2018-04-14T05:05:12.622Z,58.70
2018-04-14T05:06:12.547Z,59.09
2018-04-14T05:07:12.520Z,60.33
2018-04-14T05:08:12.499Z,62.34
2018-04-14T05:09:12.466Z,60.24
2018-04-14T05:10:12.451Z,59.95
2018-04-14T05:11:12.412Z,58.14
2018-04-14T05:12:12.380Z,62.71
2018-04-14T05:13:12.352Z,63.48
2018-04-14T05:14:12.329Z,62.71
2018-04-14T05:15:12.301Z,62.52
2018-04-14T05:16:12.262Z,62.34
2018-04-14T05:17:12.250Z,61.10
2018-04-14T05:18:12.214Z,63.96
2018-04-14T05:19:12.188Z,64.34
2018-04-14T05:20:12.162Z,64.43
2018-04-14T05:21:12.124Z,63.67
2018-04-14T05:22:12.103Z,63.96
2018-04-14T05:23:12.082Z,62.34
2018-04-14T05:24:12.081Z,63.67
2018-04-14T05:25:12.022Z,62.62
2018-04-14T05:26:11.991Z,62.52
2018-04-14T05:27:11.965Z,63.76
2018-04-14T05:28:11.931Z,64.34
2018-04-14T05:29:11.911Z,63.48
2018-04-14T05:30:11.882Z,62.24
2018-04-14T05:31:11.848Z,63.86
2018-04-14T05:32:11.817Z,62.81
2018-04-14T05:33:11.786Z,62.52
2018-04-14T05:34:11.805Z,64.05
2018-04-14T05:35:11.747Z,63.57
2018-04-14T05:36:11.710Z,63.86
2018-04-14T05:37:11.770Z,64.62
2018-04-14T05:38:11.659Z,65.39
2018-04-14T05:39:11.632Z,66.92
2018-04-14T05:40:11.601Z,67.21
2018-04-14T05:41:11.568Z,66.63
2018-04-14T05:42:11.541Z,67.58
2018-04-14T05:43:11.588Z,68.26
2018-04-14T05:44:11.488Z,69.31
2018-04-14T05:45:11.461Z,69.31
2018-04-14T05:46:11.456Z,68.82
2018-04-14T05:47:11.398Z,70.16
2018-04-14T05:48:11.375Z,71.78
2018-04-14T05:49:11.369Z,70.54
2018-04-14T05:50:11.318Z,69.72
2018-04-14T05:51:11.293Z,70.83
2018-04-14T05:52:11.275Z,70.77
2018-04-14T05:53:11.239Z,69.68
2018-04-14T05:54:11.209Z,71.02
2018-04-14T05:55:11.181Z,70.73
2018-04-14T05:56:11.153Z,70.01
2018-04-14T05:57:11.124Z,70.96
2018-04-14T05:58:11.175Z,71.15
2018-04-14T05:59:11.134Z,71.53
2018-04-14T06:00:11.063Z,72.30
2018-04-14T06:01:11.017Z,71.53
2018-04-14T06:02:11.048Z,71.34
2018-04-14T06:03:10.955Z,71.82
2018-04-14T06:04:10.969Z,72.49
2018-04-14T06:05:11.104Z,72.39
2018-04-14T06:06:11.032Z,72.78
2018-04-14T06:07:10.902Z,72.78
2018-04-14T06:08:10.818Z,73.92
2018-04-14T06:09:10.812Z,74.49
2018-04-14T06:10:10.762Z,73.35
2018-04-14T06:11:10.739Z,73.16
2018-04-14T06:12:10.704Z,74.98
2018-04-14T06:13:10.726Z,75.16
2018-04-14T06:14:10.654Z,74.78
2018-04-14T06:15:10.877Z,74.49
2018-04-14T06:16:10.665Z,75.07
2018-04-14T06:17:10.652Z,76.98
2018-04-14T06:18:10.624Z,77.08
2018-04-14T06:19:10.517Z,76.50
2018-04-14T06:20:10.486Z,76.88
2018-04-14T06:21:10.467Z,76.31
2018-04-14T06:22:10.605Z,76.50
2018-04-14T06:23:10.415Z,76.69
2018-04-14T06:24:10.386Z,77.65
2018-04-14T06:25:10.352Z,78.89
2018-04-14T06:26:10.331Z,77.97
2018-04-14T06:27:10.293Z,78.55
2018-04-14T06:28:10.281Z,78.41
2018-04-14T06:29:10.241Z,78.16
2018-04-14T06:30:10.207Z,78.83
2018-04-14T06:31:10.189Z,78.45
2018-04-14T06:32:10.151Z,78.93
2018-04-14T06:33:10.211Z,78.93
2018-04-14T06:34:10.096Z,78.26
2018-04-14T06:35:10.072Z,77.87
2018-04-14T06:36:10.047Z,77.11
2018-04-14T06:37:10.018Z,78.83
2018-04-14T06:38:10.050Z,79.02
2018-04-14T06:39:09.972Z,78.74
2018-04-14T06:40:09.937Z,77.78
2018-04-14T06:41:09.911Z,78.93
2018-04-14T06:42:09.913Z,79.50
2018-04-14T06:43:09.866Z,79.02
2018-04-14T06:44:09.896Z,78.83
2018-04-14T06:45:09.903Z,79.79
2018-04-14T06:46:09.776Z,79.31
2018-04-14T06:47:09.808Z,78.45
2018-04-14T06:48:09.791Z,78.64
2018-04-14T06:49:09.700Z,78.45
2018-04-14T06:50:09.726Z,79.02
2018-04-14T06:51:09.641Z,78.55
2018-04-14T06:52:09.707Z,77.78
2018-04-14T06:53:09.601Z,77.87
2018-04-14T06:54:09.564Z,78.07
2018-04-14T06:55:09.537Z,77.59
2018-04-14T06:56:09.505Z,77.40
2018-04-14T06:57:09.517Z,77.21
2018-04-14T06:58:09.446Z,77.25
2018-04-14T06:59:09.450Z,77.87
2018-04-14T07:00:09.398Z,77.11
2018-04-14T07:01:09.447Z,75.30
2018-04-14T07:02:09.358Z,77.21
2018-04-14T07:03:09.315Z,77.01
2018-04-14T07:04:09.283Z,78.45
2018-04-14T07:05:09.909Z,77.50
2018-04-14T07:06:09.303Z,77.11
2018-04-14T07:07:09.198Z,77.78
2018-04-14T07:08:09.351Z,77.50
2018-04-14T07:09:09.247Z,77.11
2018-04-14T07:10:09.137Z,76.45
2018-04-14T07:11:09.131Z,77.87
2018-04-14T07:12:09.185Z,77.59
2018-04-14T07:13:09.302Z,78.45
2018-04-14T07:14:09.189Z,79.16
2018-04-14T07:15:08.993Z,79.06
2018-04-14T07:16:08.964Z,78.58
2018-04-14T07:17:09.019Z,80.30
2018-04-14T07:18:09.004Z,79.35
2018-04-14T07:19:08.975Z,80.11
2018-04-14T07:20:09.081Z,80.11
2018-04-14T07:21:08.984Z,79.64
2018-04-14T07:22:08.872Z,79.54
2018-04-14T07:23:08.780Z,79.50
2018-04-14T07:24:08.915Z,79.12
2018-04-14T07:25:09.062Z,79.50
2018-04-14T07:26:08.761Z,79.60
2018-04-14T07:27:08.837Z,79.50
2018-04-14T07:28:08.663Z,80.02
2018-04-14T07:29:08.717Z,79.41
2018-04-14T07:30:08.662Z,80.36
2018-04-14T07:31:08.565Z,79.98
2018-04-14T07:32:08.731Z,79.31
2018-04-14T07:33:08.557Z,80.17
2018-04-14T07:34:08.776Z,79.60
2018-04-14T07:35:08.974Z,80.27
2018-04-14T07:36:09.031Z,79.64
2018-04-14T07:37:09.268Z,81.93
2018-04-14T07:38:08.496Z,81.93
2018-04-14T07:39:08.368Z,81.74
2018-04-14T07:40:08.310Z,80.40
2018-04-14T07:41:08.410Z,80.79
2018-04-14T07:42:08.475Z,82.12
2018-04-14T07:43:08.235Z,80.69
2018-04-14T07:44:08.374Z,81.74
2018-04-14T07:45:08.180Z,82.03
2018-04-14T07:46:08.193Z,82.31
2018-04-14T07:47:08.131Z,81.45
2018-04-14T07:48:08.150Z,80.88
2018-04-14T07:49:08.109Z,80.27
2018-04-14T07:50:08.215Z,80.79
2018-04-14T07:51:08.090Z,81.16
2018-04-14T07:52:08.057Z,80.98
2018-04-14T07:53:07.972Z,81.40
2018-04-14T07:54:07.942Z,82.51
2018-04-14T07:55:08.051Z,81.55
2018-04-14T07:56:07.888Z,82.31
2018-04-14T07:57:07.883Z,82.74
2018-04-14T07:58:07.833Z,82.35
2018-04-14T07:59:07.830Z,81.97
2018-04-14T08:00:07.872Z,82.22
2018-04-14T08:01:07.866Z,82.31
2018-04-14T08:03:55.071Z,81.74
2018-04-14T08:04:54.517Z,80.50
2018-04-14T08:07:12.794Z,82.07
2018-04-14T08:08:02.324Z,83.98
2018-04-14T08:10:02.884Z,84.27
2018-04-14T08:11:02.921Z,83.79
2018-04-14T08:13:08.808Z,84.41
2018-04-14T08:14:08.734Z,85.55
2018-04-14T08:16:13.559Z,85.99
2018-04-14T08:17:13.355Z,85.94
2018-04-14T08:19:11.762Z,85.08
2018-04-14T08:20:11.747Z,86.13
2018-04-14T08:22:18.799Z,85.84
2018-04-14T08:23:17.949Z,85.65
2018-04-14T08:24:17.498Z,85.75
2018-04-14T08:25:17.431Z,85.94
2018-04-14T08:26:17.421Z,86.65
2018-04-14T08:27:17.391Z,85.79
2018-04-14T08:28:17.356Z,87.66
2018-04-14T08:29:17.348Z,86.84
2018-04-14T08:30:17.312Z,87.99
2018-04-14T08:31:17.273Z,87.90
2018-04-14T08:32:19.179Z,87.37
2018-04-14T08:33:17.209Z,87.18
2018-04-14T08:34:17.363Z,86.22
2018-04-14T08:35:17.374Z,85.94
2018-04-14T08:36:17.159Z,87.47
2018-04-14T08:37:17.165Z,87.47
2018-04-14T08:38:17.093Z,87.56
2018-04-14T08:39:17.131Z,87.41
2018-04-14T08:40:17.078Z,88.85
2018-04-14T08:41:17.018Z,88.85
2018-04-14T08:42:17.083Z,88.85
2018-04-14T08:43:16.958Z,88.66
2018-04-14T08:44:16.930Z,88.47
2018-04-14T08:45:16.926Z,88.66
2018-04-14T08:46:16.925Z,88.66
2018-04-14T08:47:16.866Z,88.76
2018-04-14T08:48:19.612Z,89.04
2018-04-14T08:49:16.811Z,88.37
2018-04-14T08:50:16.802Z,89.52
2018-04-14T08:51:16.870Z,89.23
2018-04-14T08:52:16.752Z,89.04
2018-04-14T08:53:16.721Z,88.76
2018-04-14T08:54:16.714Z,88.37
2018-04-14T08:55:17.857Z,88.43
2018-04-14T08:56:16.679Z,87.85
2018-04-14T08:57:16.604Z,87.47
2018-04-14T08:58:16.604Z,87.56
2018-04-14T08:59:16.557Z,87.56
2018-04-14T09:00:16.597Z,87.66
2018-04-14T09:01:16.654Z,87.85
2018-04-14T09:02:16.769Z,87.70
2018-04-14T09:03:16.471Z,88.76
2018-04-14T09:04:16.440Z,87.47
2018-04-14T09:05:16.477Z,88.62
2018-04-14T09:06:16.385Z,88.85
2018-04-14T09:07:16.355Z,88.52
2018-04-14T09:08:16.571Z,87.66
2018-04-14T09:09:16.298Z,88.04
2018-04-14T09:10:16.356Z,87.95
2018-04-14T09:11:16.299Z,88.62
2018-04-14T09:12:16.378Z,88.33
2018-04-14T09:13:16.337Z,87.85
2018-04-14T09:14:16.225Z,87.66
2018-04-14T09:15:16.170Z,87.85
2018-04-14T09:16:16.335Z,86.41
2018-04-14T09:17:16.133Z,89.04
2018-04-14T09:18:16.146Z,87.37
2018-04-14T09:19:17.133Z,88.18
2018-04-14T09:20:16.146Z,89.23
2018-04-14T09:21:16.057Z,89.76
2018-04-14T09:22:16.056Z,90.14
2018-04-14T09:23:15.943Z,88.90
2018-04-14T09:24:15.990Z,89.09
2018-04-14T09:25:15.905Z,89.18
2018-04-14T09:26:15.942Z,88.99
2018-04-14T09:27:15.851Z,90.23
2018-04-14T09:28:15.822Z,89.95
2018-04-14T09:29:15.808Z,89.47
2018-04-14T09:30:15.840Z,89.81
2018-04-14T09:31:15.800Z,89.18
2018-04-14T09:32:15.867Z,89.09
2018-04-14T09:33:15.767Z,89.47
2018-04-14T09:34:15.777Z,89.95
2018-04-14T09:35:15.664Z,89.86
2018-04-14T09:36:15.626Z,90.05
2018-04-14T09:37:15.601Z,89.86
2018-04-14T09:38:15.653Z,88.90
2018-04-14T09:39:15.712Z,89.43
2018-04-14T09:40:15.526Z,87.99
2018-04-14T09:41:15.520Z,89.72
2018-04-14T09:42:15.537Z,88.85
2018-04-14T09:43:15.538Z,89.52
2018-04-14T09:44:15.418Z,89.95
2018-04-14T09:45:15.514Z,89.28
2018-04-14T09:46:15.432Z,89.47
2018-04-14T09:47:15.349Z,90.23
2018-04-14T09:48:15.328Z,89.86
2018-04-14T09:49:15.310Z,89.47
2018-04-14T09:50:15.293Z,88.51
2018-04-14T09:51:15.252Z,90.05
2018-04-14T09:52:15.249Z,89.47
2018-04-14T09:53:15.352Z,90.05
2018-04-14T09:54:16.271Z,89.37
2018-04-14T09:55:15.145Z,90.14
2018-04-14T09:56:15.159Z,90.28
2018-04-14T09:57:15.100Z,91.05
2018-04-14T09:58:15.072Z,91.05
2018-04-14T09:59:15.055Z,89.42
2018-04-14T10:00:15.023Z,90.19
2018-04-14T10:01:14.997Z,89.95
2018-04-14T10:02:15.040Z,90.05
2018-04-14T10:03:14.977Z,91.05
2018-04-14T10:04:14.926Z,91.24
2018-04-14T10:05:14.910Z,90.95
2018-04-14T10:06:14.915Z,90.86
2018-04-14T10:07:14.854Z,89.28
2018-04-14T10:08:14.863Z,90.28
2018-04-14T10:09:14.879Z,91.24
2018-04-14T10:10:14.910Z,90.00
2018-04-14T10:11:14.800Z,89.28
2018-04-14T10:12:14.733Z,89.95
2018-04-14T10:13:14.715Z,88.80
2018-04-14T10:14:14.917Z,89.95
2018-04-14T10:15:14.660Z,89.66
2018-04-14T10:16:14.660Z,90.14
2018-04-14T10:17:14.615Z,89.86
2018-04-14T10:18:14.652Z,89.18
2018-04-14T10:19:14.565Z,88.70
2018-04-14T10:20:16.196Z,89.09
2018-04-14T10:21:16.161Z,89.76
2018-04-14T10:22:14.536Z,89.76
2018-04-14T10:23:14.556Z,89.28
2018-04-14T10:24:14.489Z,89.57
2018-04-14T10:25:16.365Z,89.37
2018-04-14T10:26:14.468Z,89.18
2018-04-14T10:27:14.402Z,90.09
2018-04-14T10:28:14.682Z,89.47
2018-04-14T10:29:14.341Z,90.38
2018-04-14T10:30:14.319Z,90.47
2018-04-14T10:31:14.375Z,89.90
2018-04-14T10:32:14.266Z,91.05
2018-04-14T10:33:14.230Z,90.90
2018-04-14T10:34:14.332Z,91.38
2018-04-14T10:35:14.174Z,90.90
2018-04-14T10:36:16.361Z,90.95
2018-04-14T10:37:14.175Z,91.42
2018-04-14T10:38:14.162Z,90.95
2018-04-14T10:39:14.081Z,91.42
2018-04-14T10:40:14.047Z,91.52
2018-04-14T10:41:14.321Z,91.24
2018-04-14T10:42:14.077Z,90.71
2018-04-14T10:43:14.596Z,91.48
2018-04-14T10:44:15.703Z,91.24
2018-04-14T10:45:13.998Z,90.86
2018-04-14T10:46:15.642Z,91.86
2018-04-14T10:47:13.900Z,91.57
2018-04-14T10:48:13.923Z,91.38
2018-04-14T10:49:13.837Z,91.52
2018-04-14T10:50:13.805Z,91.42
2018-04-14T10:51:13.861Z,91.52
2018-04-14T10:52:13.759Z,91.86
2018-04-14T10:53:13.797Z,91.52
2018-04-14T10:54:13.754Z,91.05
2018-04-14T10:55:13.688Z,91.33
2018-04-14T10:56:13.691Z,91.19
2018-04-14T10:57:13.692Z,91.77
2018-04-14T10:58:13.628Z,91.42
2018-04-14T10:59:15.198Z,91.67
2018-04-14T11:00:15.142Z,90.90
2018-04-14T11:01:13.660Z,92.10
2018-04-14T11:02:13.524Z,91.72
2018-04-14T11:03:13.496Z,91.81
2018-04-14T11:04:13.551Z,91.42
2018-04-14T11:05:13.452Z,91.91
2018-04-14T11:06:13.423Z,91.38
2018-04-14T11:07:13.491Z,91.28
2018-04-14T11:08:15.295Z,91.24
2018-04-14T11:09:13.356Z,91.14
2018-04-14T11:10:13.348Z,91.05
2018-04-14T11:11:13.336Z,91.63
2018-04-14T11:12:16.144Z,91.05
2018-04-14T11:13:13.263Z,91.53
2018-04-14T11:14:13.311Z,91.43
2018-04-14T11:15:13.213Z,91.77
2018-04-14T11:16:13.185Z,92.24
2018-04-14T11:17:13.162Z,91.52
2018-04-14T11:18:13.131Z,92.19
2018-04-14T11:19:13.222Z,91.38
2018-04-14T11:20:13.083Z,91.04
2018-04-14T11:21:13.119Z,90.66
2018-04-14T11:22:14.678Z,90.27
2018-04-14T11:23:13.020Z,90.46
2018-04-14T11:24:13.062Z,89.74
2018-04-14T11:25:15.690Z,89.07
2018-04-14T11:26:12.951Z,86.80
2018-04-14T11:27:12.942Z,85.35
2018-04-14T11:28:12.985Z,79.33
2018-04-14T11:29:12.873Z,77.31
2018-04-14T11:30:12.935Z,76.76
2018-04-14T11:31:12.987Z,75.73
2018-04-14T11:32:12.807Z,74.74
2018-04-14T11:33:14.702Z,71.22
2018-04-14T11:34:12.895Z,71.37
2018-04-14T11:35:12.782Z,70.73
2018-04-14T11:36:12.800Z,72.78
2018-04-14T11:37:12.693Z,75.73
2018-04-14T11:38:12.752Z,79.25
2018-04-14T11:39:12.651Z,80.46
2018-04-14T11:40:12.639Z,84.36
2018-04-14T11:41:12.714Z,86.18
2018-04-14T11:42:15.189Z,85.36
2018-04-14T11:43:12.564Z,83.63
2018-04-14T11:44:15.155Z,84.50
2018-04-14T11:45:12.574Z,86.33
2018-04-14T11:46:12.495Z,86.57
2018-04-14T11:47:12.596Z,83.58
2018-04-14T11:48:12.454Z,79.58
2018-04-14T11:49:12.583Z,76.06
2018-04-14T11:50:12.494Z,73.46
2018-04-14T11:51:12.639Z,73.71
2018-04-14T11:52:12.374Z,72.11
2018-04-14T11:53:12.343Z,71.37
2018-04-14T11:54:12.401Z,71.40
2018-04-14T11:55:15.161Z,79.69
2018-04-14T11:56:12.361Z,83.30
2018-04-14T11:57:12.272Z,83.78
2018-04-14T11:58:12.247Z,85.47
2018-04-14T11:59:12.225Z,88.79
2018-04-14T12:00:14.181Z,90.56
2018-04-14T12:01:12.185Z,89.50
2018-04-14T12:02:12.157Z,89.36
2018-04-14T12:03:12.159Z,90.94
2018-04-14T12:04:12.128Z,90.42
2018-04-14T12:05:12.169Z,89.26
2018-04-14T12:06:12.128Z,88.21
2018-04-14T12:07:12.055Z,88.35
2018-04-14T12:08:12.032Z,82.14
2018-04-14T12:09:12.106Z,81.71
2018-04-14T12:10:12.050Z,81.99
2018-04-14T12:11:11.983Z,82.86
2018-04-14T12:12:11.987Z,82.59
2018-04-14T12:13:11.922Z,84.41
2018-04-14T12:14:11.898Z,84.36
2018-04-14T12:15:11.884Z,84.55
2018-04-14T12:16:11.852Z,84.17
2018-04-14T12:17:11.833Z,83.20
2018-04-14T12:18:11.813Z,79.19
2018-04-14T12:19:11.793Z,75.82
2018-04-14T12:20:11.788Z,74.09
2018-04-14T12:21:11.767Z,70.15
2018-04-14T12:22:11.784Z,69.19
2018-04-14T12:23:11.739Z,66.14
2018-04-14T12:24:11.682Z,64.11
2018-04-14T12:25:11.697Z,62.70
2018-04-14T12:26:11.629Z,60.61
2018-04-14T12:27:11.617Z,58.93
2018-04-14T12:28:11.612Z,57.41
2018-04-14T12:29:11.613Z,55.87
2018-04-14T12:30:11.551Z,56.80
2018-04-14T12:31:11.540Z,57.35
2018-04-14T12:32:11.524Z,58.48
2018-04-14T12:33:11.496Z,58.03
2018-04-14T12:34:11.481Z,56.68
2018-04-14T12:35:11.491Z,55.93
2018-04-14T12:36:11.484Z,55.29
2018-04-14T12:37:11.424Z,54.13
2018-04-14T12:38:11.497Z,55.52
2018-04-14T12:39:11.499Z,56.26
2018-04-14T12:40:15.223Z,56.96
2018-04-14T12:41:14.220Z,57.52
2018-04-14T12:42:11.462Z,59.84
2018-04-14T12:43:11.518Z,62.57
2018-04-14T12:44:11.311Z,64.50
2018-04-14T12:45:11.274Z,64.92
2018-04-14T12:46:11.257Z,63.98
2018-04-14T12:47:11.246Z,61.96
2018-04-14T12:48:11.224Z,61.93
2018-04-14T12:49:11.198Z,62.70
2018-04-14T12:50:11.194Z,61.19
2018-04-14T12:51:11.160Z,59.87
2018-04-14T12:52:12.668Z,57.93
2018-04-14T12:53:11.122Z,55.65
2018-04-14T12:54:11.111Z,53.93
2018-04-14T12:55:11.086Z,53.11
2018-04-14T12:56:11.087Z,51.50
2018-04-14T12:57:11.096Z,50.04
2018-04-14T12:58:12.666Z,50.12
2018-04-14T12:59:11.156Z,50.40
2018-04-14T13:00:10.999Z,52.24